createdAt,value
2023-01-27T00:01:08.592Z,20.90
2023-01-27T00:03:35.670Z,21.60
2023-01-27T00:06:05.902Z,23.80
2023-01-27T00:08:32.705Z,22.00
2023-01-27T00:11:19.628Z,20.60
2023-01-27T00:13:46.569Z,26.10
2023-01-27T00:16:13.663Z,22.60
2023-01-27T00:18:40.645Z,21.60
2023-01-27T00:21:26.145Z,21.60
2023-01-27T00:24:11.684Z,21.50
2023-01-27T00:26:38.785Z,22.00
2023-01-27T00:29:05.617Z,23.00
2023-01-27T00:31:51.564Z,21.50
2023-01-27T00:34:18.761Z,24.40
2023-01-27T00:36:45.524Z,27.00
2023-01-27T00:39:14.192Z,24.70
2023-01-27T00:41:43.492Z,22.50
2023-01-27T00:44:12.591Z,21.60
2023-01-27T00:46:40.906Z,23.40
2023-01-27T00:49:09.368Z,21.70
2023-01-27T00:51:37.516Z,20.20
2023-01-27T00:54:04.874Z,21.30
2023-01-27T00:56:31.942Z,21.10
2023-01-27T00:58:58.699Z,20.40
2023-01-27T01:01:25.591Z,21.00
2023-01-27T01:03:52.713Z,19.00
2023-01-27T01:06:19.834Z,21.50
2023-01-27T01:08:48.230Z,23.50
2023-01-27T01:11:16.698Z,20.00
2023-01-27T01:13:44.940Z,21.00
2023-01-27T01:16:22.107Z,21.40
2023-01-27T01:18:49.206Z,22.40
2023-01-27T01:21:16.096Z,21.40
2023-01-27T01:23:45.420Z,20.90
2023-01-27T01:26:14.221Z,22.60
2023-01-27T01:28:41.129Z,20.50
2023-01-27T01:31:10.260Z,21.10
2023-01-27T01:33:37.190Z,21.00
2023-01-27T01:36:08.804Z,20.70
2023-01-27T01:38:36.432Z,22.30
2023-01-27T01:41:04.666Z,20.70
2023-01-27T01:43:31.636Z,21.80
2023-01-27T01:45:59.480Z,21.60
2023-01-27T01:48:49.529Z,23.70
2023-01-27T01:51:19.713Z,23.80
2023-01-27T01:53:53.628Z,21.60
2023-01-27T01:56:26.431Z,21.70
2023-01-27T01:58:54.992Z,20.00
2023-01-27T02:01:24.551Z,20.70
2023-01-27T02:03:54.611Z,21.30
2023-01-27T02:06:21.178Z,23.50
2023-01-27T02:08:48.702Z,22.50
2023-01-27T02:11:15.762Z,25.40
2023-01-27T02:13:42.711Z,22.50
2023-01-27T02:23:57.235Z,24.00
2023-01-27T02:26:32.674Z,25.00
2023-01-27T02:29:06.353Z,23.10
2023-01-27T02:31:34.954Z,23.40
2023-01-27T02:34:09.333Z,25.30
2023-01-27T02:36:58.218Z,23.70
2023-01-27T02:39:31.501Z,22.90
2023-01-27T02:41:59.578Z,24.60
2023-01-27T02:44:27.889Z,23.30
2023-01-27T02:46:56.558Z,26.50
2023-01-27T02:49:25.125Z,25.20
2023-01-27T02:51:53.523Z,23.90
2023-01-27T02:54:25.266Z,24.70
2023-01-27T02:56:53.576Z,24.00
2023-01-27T02:59:24.495Z,23.20
2023-01-27T03:01:53.056Z,23.10
2023-01-27T03:04:21.385Z,25.60
2023-01-27T03:06:49.939Z,25.10
2023-01-27T03:09:18.939Z,24.20
2023-01-27T03:12:06.365Z,24.30
2023-01-27T03:14:55.228Z,23.70
2023-01-27T03:17:42.134Z,23.00
2023-01-27T03:20:11.482Z,25.80
2023-01-27T03:22:39.620Z,27.10
2023-01-27T03:25:08.920Z,24.80
2023-01-27T03:27:37.209Z,25.30
2023-01-27T03:30:38.159Z,24.00
2023-01-27T03:33:15.615Z,23.70
2023-01-27T03:36:23.551Z,23.00
2023-01-27T03:39:11.362Z,24.20
2023-01-27T03:41:58.285Z,25.00
2023-01-27T03:44:46.524Z,25.90
2023-01-27T03:47:14.651Z,26.80
2023-01-27T03:49:42.945Z,25.50
2023-01-27T03:52:11.067Z,26.30
2023-01-27T03:54:39.777Z,24.80
2023-01-27T03:57:08.445Z,25.50
2023-01-27T03:59:37.910Z,27.50
2023-01-27T04:02:25.292Z,26.40
2023-01-27T04:05:13.033Z,25.00
2023-01-27T04:07:43.867Z,25.20
2023-01-27T04:10:12.020Z,28.40
2023-01-27T04:12:41.235Z,25.30
2023-01-27T04:15:09.812Z,25.60
2023-01-27T04:17:42.153Z,25.60
2023-01-27T04:20:11.566Z,24.20
2023-01-27T04:22:40.343Z,24.30
2023-01-27T04:25:11.633Z,23.40
2023-01-27T04:27:43.584Z,25.30
2023-01-27T04:30:12.345Z,24.60
2023-01-27T04:32:40.455Z,25.50
2023-01-27T04:35:08.996Z,25.30
2023-01-27T04:37:37.786Z,25.50
2023-01-27T04:40:07.322Z,28.10
2023-01-27T04:42:35.566Z,32.50
2023-01-27T04:45:04.504Z,26.50
2023-01-27T04:47:33.250Z,28.60
2023-01-27T04:50:01.405Z,26.70
2023-01-27T04:52:29.902Z,26.50
2023-01-27T04:54:58.285Z,27.60
2023-01-27T04:57:28.144Z,29.90
2023-01-27T04:59:56.581Z,32.80
2023-01-27T06:08:35.027Z,25.20
2023-01-27T06:11:01.867Z,26.50
2023-01-27T06:13:29.063Z,26.00
2023-01-27T06:15:56.137Z,27.70
2023-01-27T06:18:23.471Z,27.80
2023-01-27T06:20:50.216Z,27.50
2023-01-27T06:23:17.771Z,28.10
2023-01-27T06:25:46.061Z,26.90
2023-01-27T06:28:27.153Z,27.70
2023-01-27T06:30:56.655Z,25.50
2023-01-27T06:33:23.699Z,29.40
2023-01-27T06:36:00.821Z,26.30
2023-01-27T06:38:27.459Z,26.90
2023-01-27T06:40:56.456Z,25.90
2023-01-27T06:43:24.348Z,31.30
2023-01-27T06:45:51.571Z,28.10
2023-01-27T06:48:18.636Z,28.30
2023-01-27T06:50:45.315Z,26.30
2023-01-27T06:53:12.107Z,28.50
2023-01-27T06:55:41.077Z,26.60
2023-01-27T06:58:09.089Z,28.40
2023-01-27T07:00:38.774Z,27.90
2023-01-27T07:03:05.907Z,26.30
2023-01-27T07:05:33.155Z,27.00
2023-01-27T07:07:59.986Z,26.00
2023-01-27T07:10:26.923Z,26.60
2023-01-27T07:13:04.395Z,25.10
2023-01-27T07:15:31.593Z,24.90
2023-01-27T07:17:59.861Z,26.60
2023-01-27T07:20:28.238Z,26.20
2023-01-27T07:23:03.167Z,26.50
2023-01-27T07:25:33.608Z,26.60
2023-01-27T07:28:00.742Z,27.10
2023-01-27T07:30:34.916Z,25.50
2023-01-27T07:33:08.988Z,24.80
2023-01-27T07:35:36.623Z,26.30
2023-01-27T07:38:04.044Z,25.40
2023-01-27T07:40:30.715Z,26.50
2023-01-27T07:42:58.766Z,38.40
2023-01-27T07:45:27.496Z,31.30
2023-01-27T07:48:00.387Z,30.90
2023-01-27T07:50:27.176Z,47.10
2023-01-27T07:52:53.798Z,69.10
2023-01-27T07:55:20.382Z,39.20
2023-01-27T07:57:47.095Z,33.20
2023-01-27T08:00:15.141Z,27.80
2023-01-27T08:02:43.043Z,29.90
2023-01-27T08:05:09.651Z,27.60
2023-01-27T08:07:36.834Z,26.40
2023-01-27T08:10:04.027Z,27.30
2023-01-27T08:12:31.192Z,28.60
2023-01-27T08:14:58.820Z,26.50
2023-01-27T08:17:28.717Z,27.20
2023-01-27T08:19:55.782Z,24.90
2023-01-27T08:22:24.571Z,26.60
2023-01-27T08:24:51.464Z,27.70
2023-01-27T08:27:18.361Z,25.60
2023-01-27T08:29:45.026Z,32.40
2023-01-27T08:32:14.173Z,30.80
2023-01-27T08:34:42.737Z,33.00
2023-01-27T08:37:09.368Z,31.80
2023-01-27T08:39:36.820Z,27.30
2023-01-27T08:42:04.438Z,28.50
2023-01-27T08:44:31.299Z,27.60
2023-01-27T08:46:57.942Z,28.60
2023-01-27T08:49:24.980Z,28.00
2023-01-27T08:51:51.708Z,26.90
2023-01-27T08:54:18.441Z,25.70
2023-01-27T08:56:45.039Z,25.80
2023-01-27T08:59:11.664Z,27.90
2023-01-27T09:01:38.873Z,26.70
2023-01-27T09:04:10.390Z,24.60
2023-01-27T09:06:38.644Z,26.00
2023-01-27T09:09:10.971Z,25.60
2023-01-27T09:11:47.633Z,23.30
2023-01-27T09:14:14.573Z,24.50
2023-01-27T09:16:41.252Z,23.60
2023-01-27T09:19:08.229Z,25.80
2023-01-27T09:21:35.229Z,24.30
2023-01-27T09:24:02.057Z,21.70
2023-01-27T09:26:29.762Z,25.20
2023-01-27T09:28:56.710Z,21.10
2023-01-27T09:31:25.790Z,22.60
2023-01-27T09:33:52.496Z,22.50
2023-01-27T09:36:20.745Z,21.90
2023-01-27T09:38:55.712Z,20.40
2023-01-27T09:41:59.975Z,23.90
2023-01-27T09:44:38.954Z,36.20
2023-01-27T09:47:15.915Z,25.70
2023-01-27T09:50:09.331Z,24.30
2023-01-27T09:52:57.610Z,21.90
2023-01-27T09:55:45.036Z,21.50
2023-01-27T09:58:24.775Z,21.50
2023-01-27T12:12:32.793Z,19.20
2023-01-27T12:15:02.546Z,17.90
2023-01-27T12:17:35.590Z,17.60
2023-01-27T12:20:06.347Z,21.00
2023-01-27T12:22:38.639Z,20.70
2023-01-27T12:25:07.733Z,19.50
2023-01-27T12:27:40.561Z,20.30
2023-01-27T12:30:16.066Z,19.50
2023-01-27T12:32:47.161Z,19.20
2023-01-27T12:35:33.776Z,20.10
2023-01-27T12:38:26.698Z,19.30
2023-01-27T12:40:59.440Z,20.50
2023-01-27T12:43:26.171Z,21.60
2023-01-27T12:46:28.575Z,20.20
2023-01-27T12:49:07.573Z,18.90
2023-01-27T12:51:40.471Z,18.10
2023-01-27T12:54:21.298Z,19.00
2023-01-27T12:56:52.494Z,19.80
2023-01-27T12:59:20.965Z,21.90
2023-01-27T13:02:18.567Z,23.10
2023-01-27T13:04:53.841Z,18.60
2023-01-27T13:07:24.686Z,20.60
2023-01-27T13:10:03.368Z,21.60
2023-01-27T13:12:34.907Z,21.00
2023-01-27T13:15:21.235Z,22.90
2023-01-27T13:17:55.225Z,23.00
2023-01-27T13:20:26.041Z,29.50
2023-01-27T13:25:22.987Z,35.40
2023-01-27T13:27:53.024Z,36.10
2023-01-27T13:30:26.862Z,32.10
2023-01-27T13:32:55.528Z,27.10
2023-01-27T13:35:37.679Z,30.30
2023-01-27T13:38:13.688Z,38.00
2023-01-27T13:40:45.159Z,34.10
2023-01-27T13:43:19.995Z,30.80
2023-01-27T13:46:20.972Z,27.60
2023-01-27T18:15:33.326Z,66.90
2023-01-27T18:18:01.233Z,71.20
2023-01-27T18:20:32.034Z,68.30
2023-01-27T18:25:25.382Z,64.40
2023-01-27T18:27:53.306Z,55.30
2023-01-27T18:30:20.952Z,49.10
2023-01-27T18:32:53.297Z,53.80
2023-01-27T18:35:25.780Z,43.20
2023-01-27T18:37:57.848Z,45.70
2023-01-27T18:40:35.002Z,36.60
2023-01-27T18:43:03.499Z,35.20
2023-01-27T18:45:30.257Z,34.10
2023-01-27T18:47:57.158Z,33.60
2023-01-27T18:50:25.029Z,37.20
2023-01-27T18:52:51.961Z,82.30
2023-01-27T18:55:22.484Z,53.70
2023-01-27T18:57:53.646Z,124.10
2023-01-27T19:00:38.585Z,56.30
2023-01-27T19:03:07.205Z,35.70
2023-01-27T19:05:35.714Z,40.20
2023-01-27T19:08:02.949Z,76.10
2023-01-27T19:10:31.968Z,55.10
2023-01-27T19:13:00.110Z,55.30
2023-01-27T19:15:28.443Z,57.30
2023-01-27T19:17:56.504Z,71.20
2023-01-27T19:20:25.144Z,35.60
2023-01-27T19:22:52.773Z,37.70
2023-01-27T19:25:20.142Z,33.40
2023-01-27T19:27:49.795Z,38.80
2023-01-27T19:30:19.534Z,29.60
2023-01-27T19:32:46.067Z,29.50
2023-01-27T19:35:13.485Z,29.50
2023-01-27T19:37:41.868Z,30.00
2023-01-27T19:40:16.116Z,30.90
2023-01-27T19:42:43.895Z,32.40
2023-01-27T19:45:16.210Z,31.30
2023-01-27T19:47:46.270Z,52.90
2023-01-27T19:50:18.851Z,36.30
2023-01-27T19:52:46.123Z,33.60
2023-01-27T19:55:14.534Z,32.80
2023-01-27T19:57:42.527Z,30.90
2023-01-27T20:00:23.740Z,30.40
2023-01-27T20:02:50.402Z,29.60
2023-01-27T20:05:17.359Z,28.30
2023-01-27T20:07:44.524Z,28.90
2023-01-27T20:10:32.089Z,29.90
2023-01-27T20:13:00.468Z,29.50
2023-01-27T20:15:29.281Z,30.10
2023-01-27T20:17:56.714Z,42.10
2023-01-27T20:20:24.338Z,35.40
2023-01-27T20:22:52.222Z,29.60
2023-01-27T20:25:20.590Z,30.80
2023-01-27T20:27:49.602Z,40.30
2023-01-27T20:30:17.943Z,32.10
2023-01-27T20:32:45.166Z,31.70
2023-01-27T20:35:13.145Z,31.00
2023-01-27T20:37:41.000Z,29.90
2023-01-27T20:40:09.232Z,30.80
2023-01-27T20:42:38.618Z,29.50
2023-01-27T20:45:05.662Z,30.00
2023-01-27T20:47:32.621Z,28.50
2023-01-27T20:50:00.727Z,31.50
2023-01-27T20:52:27.824Z,31.90
2023-01-27T20:54:54.477Z,31.40
2023-01-27T20:57:23.469Z,30.60
2023-01-27T20:59:50.371Z,32.60
2023-01-27T21:02:17.063Z,29.10
2023-01-27T21:04:44.059Z,30.10
2023-01-27T21:07:10.860Z,31.50
2023-01-27T21:09:37.536Z,29.90
2023-01-27T21:12:04.403Z,30.00
2023-01-27T21:14:33.437Z,33.60
2023-01-27T21:17:00.292Z,29.50
2023-01-27T21:19:26.950Z,28.00
2023-01-27T21:21:53.734Z,30.30
2023-01-27T21:24:20.445Z,28.70
2023-01-27T21:26:47.363Z,28.30
2023-01-27T21:29:14.162Z,40.70
2023-01-27T21:31:41.238Z,29.20
2023-01-27T21:34:10.328Z,27.50
2023-01-27T21:36:37.276Z,24.40
2023-01-27T21:39:04.476Z,26.90
2023-01-27T21:41:50.330Z,30.60
2023-01-27T21:44:40.303Z,25.60
2023-01-27T21:47:08.680Z,25.90
2023-01-27T21:49:56.944Z,28.60
2023-01-27T21:52:25.123Z,25.70
2023-01-27T21:54:51.990Z,31.90
2023-01-27T21:57:18.652Z,29.00
2023-01-27T21:59:45.397Z,28.60
2023-01-27T22:02:15.553Z,29.90
2023-01-27T22:04:42.643Z,25.90
2023-01-27T22:07:10.837Z,27.00
2023-01-27T22:09:38.240Z,26.40
2023-01-27T22:12:05.926Z,25.10
2023-01-27T22:14:33.576Z,27.00
2023-01-27T22:17:00.427Z,29.00
2023-01-27T22:19:27.252Z,26.80
2023-01-27T22:21:54.776Z,30.30
2023-01-27T22:24:24.715Z,29.30
2023-01-27T22:26:51.364Z,33.10
2023-01-27T22:29:18.275Z,29.80
2023-01-27T22:31:44.824Z,28.50
2023-01-27T22:34:11.605Z,33.20
2023-01-27T22:36:38.390Z,31.70
2023-01-27T22:39:04.983Z,36.40
2023-01-27T22:41:32.518Z,33.50
2023-01-27T22:43:59.363Z,33.20
2023-01-27T22:46:26.119Z,32.00
2023-01-27T22:48:54.991Z,31.70
2023-01-27T22:51:21.863Z,31.00
2023-01-27T22:53:48.533Z,32.00
2023-01-27T22:56:15.922Z,31.40
2023-01-27T22:58:42.673Z,32.10
2023-01-27T23:01:09.392Z,28.50
2023-01-27T23:03:36.085Z,29.80
2023-01-27T23:06:04.498Z,28.10
2023-01-27T23:08:32.769Z,28.10
2023-01-27T23:11:00.932Z,30.10
2023-01-27T23:13:28.978Z,29.30
2023-01-27T23:15:56.391Z,27.00
2023-01-27T23:18:23.830Z,28.00
2023-01-27T23:20:50.653Z,27.20
2023-01-27T23:23:18.691Z,28.20
2023-01-27T23:25:46.941Z,27.30
2023-01-27T23:28:17.137Z,28.00
2023-01-27T23:30:47.572Z,27.20
2023-01-27T23:33:16.697Z,26.30
2023-01-27T23:35:43.551Z,26.80
2023-01-27T23:38:22.711Z,27.50
2023-01-27T23:40:53.955Z,27.70
2023-01-27T23:43:21.724Z,27.30
2023-01-27T23:45:52.186Z,27.70
2023-01-27T23:50:46.283Z,28.00
2023-01-27T23:53:13.251Z,31.00
2023-01-27T23:55:39.849Z,26.60
2023-01-27T23:58:06.674Z,29.20
